首页
METAR-TAF:

METAR-TAF

机场 :

Blue Ridge Airport

馬丁斯維爾, 弗吉尼亚州, 美国

纬度: 36-38N, 经度: 080-01W, 海拔: 287米

当前天气观测

该预报发布于27分钟前的19:35 UTC
风速3节,风向西南
温度 11°C
湿度 87%
气压 1020 hPa
能見度: 11.3公里
多云层高于1600英尺
阴天层高于2600英尺
小雨

METAR: KMTV 181935Z AUTO 22003KT 7SM -RA BKN016 OVC026 11/09 A3011 RMK AO2 T01090093

时间: 15:02 (20:02 UTC)


TAF: 丢失

超过4000个机场的气象观测和天气预报(METAR&TAF报告)。

可查询的气象台以黄色和红色小点在地图上表示。

将鼠标移到小点上方,可查看气象台名称。

然后点击查看天气观测和预报。

如需切换地图:点击带黑十字的绿色按钮放大地图;点击带横线的绿色按钮缩小地图;或者点击绿色箭头查看邻近地区的地图。


METAR-TAF: